createdAt,value
2022-12-03T00:02:39.430Z,95.80
2022-12-03T00:05:48.835Z,78.97
2022-12-03T00:08:52.536Z,65.63
2022-12-03T00:11:58.485Z,68.68
2022-12-03T00:15:01.714Z,67.25
2022-12-03T00:18:05.113Z,68.03
2022-12-03T00:21:08.266Z,60.03
2022-12-03T00:24:11.444Z,66.88
2022-12-03T00:27:14.665Z,59.63
2022-12-03T00:30:18.088Z,59.75
2022-12-03T00:33:21.764Z,56.00
2022-12-03T00:36:25.003Z,61.47
2022-12-03T00:39:30.404Z,63.53
2022-12-03T00:42:33.573Z,62.58
2022-12-03T00:45:36.780Z,57.72
2022-12-03T00:48:39.918Z,61.70
2022-12-03T00:51:43.233Z,61.83
2022-12-03T00:54:46.498Z,64.20
2022-12-03T00:58:17.268Z,62.70
2022-12-03T01:01:20.616Z,62.97
2022-12-03T01:04:24.109Z,61.30
2022-12-03T01:07:27.458Z,60.13
2022-12-03T01:10:30.693Z,62.47
2022-12-03T01:13:33.853Z,62.60
2022-12-03T01:16:37.658Z,60.75
2022-12-03T01:19:46.523Z,71.63
2022-12-03T01:22:51.344Z,70.82
2022-12-03T01:25:54.570Z,70.53
2022-12-03T01:28:57.812Z,66.53
2022-12-03T01:32:19.685Z,79.32
2022-12-03T01:35:22.984Z,64.13
2022-12-03T01:38:26.460Z,73.50
2022-12-03T01:41:31.457Z,73.43
2022-12-03T01:44:36.609Z,75.90
2022-12-03T01:47:39.895Z,74.32
2022-12-03T01:50:43.890Z,67.50
2022-12-03T01:53:47.598Z,67.72
2022-12-03T01:56:51.000Z,75.22
2022-12-03T01:59:56.045Z,70.47
2022-12-03T02:03:02.219Z,65.72
2022-12-03T02:06:09.078Z,67.97
2022-12-03T02:09:13.707Z,68.70
2022-12-03T02:12:20.042Z,60.13
2022-12-03T02:15:26.785Z,62.97
2022-12-03T02:18:29.996Z,71.43
2022-12-03T02:21:40.161Z,60.72
2022-12-03T02:25:07.982Z,57.73
2022-12-03T02:28:11.594Z,60.70
2022-12-03T02:31:14.947Z,65.28
2022-12-03T02:34:53.913Z,70.60
2022-12-03T02:38:08.514Z,62.05
2022-12-03T02:41:34.859Z,64.25
2022-12-03T02:44:38.422Z,64.82
2022-12-03T02:47:55.820Z,68.43
2022-12-03T02:51:05.578Z,75.88
2022-12-03T02:54:08.755Z,78.00
2022-12-03T02:57:12.070Z,75.10
2022-12-03T03:00:17.373Z,73.38
2022-12-03T03:03:22.135Z,77.57
2022-12-03T03:06:25.925Z,74.35
2022-12-03T03:09:29.281Z,87.32
2022-12-03T03:12:38.849Z,88.10
2022-12-03T03:15:43.793Z,83.38
2022-12-03T03:18:47.413Z,95.57
2022-12-03T03:21:51.228Z,95.35
2022-12-03T03:24:54.642Z,92.20
2022-12-03T03:27:58.052Z,84.53
2022-12-03T03:31:04.024Z,97.63
2022-12-03T03:34:07.294Z,78.53
2022-12-03T03:37:10.548Z,84.22
2022-12-03T03:40:13.977Z,99.07
2022-12-03T03:43:17.248Z,114.68
2022-12-03T03:46:21.253Z,130.70
2022-12-03T03:49:24.737Z,96.60
2022-12-03T03:52:28.065Z,119.53
2022-12-03T03:55:31.761Z,94.72
2022-12-03T03:58:35.491Z,92.80
2022-12-03T04:01:38.934Z,88.18
2022-12-03T04:04:42.254Z,94.82
2022-12-03T04:07:45.483Z,84.38
2022-12-03T04:11:07.687Z,94.63
2022-12-03T04:14:10.873Z,85.07
2022-12-03T04:17:14.071Z,81.25
2022-12-03T04:20:17.313Z,83.07
2022-12-03T04:23:20.447Z,72.30
2022-12-03T04:26:42.579Z,90.40
2022-12-03T04:29:45.768Z,69.40
2022-12-03T04:33:07.620Z,70.35
2022-12-03T04:36:12.070Z,73.57
2022-12-03T04:39:15.281Z,69.00
2022-12-03T04:42:18.494Z,80.68
2022-12-03T04:45:21.678Z,77.97
2022-12-03T04:48:24.945Z,57.90
2022-12-03T04:51:28.101Z,67.90
2022-12-03T04:54:31.263Z,87.55
2022-12-03T04:57:34.517Z,54.25
2022-12-03T05:00:37.822Z,63.77
2022-12-03T05:03:41.029Z,51.80
2022-12-03T05:06:44.568Z,50.72
2022-12-03T05:09:47.937Z,56.47
2022-12-03T05:12:51.248Z,59.92
2022-12-03T05:15:54.428Z,56.70
2022-12-03T05:18:58.001Z,66.97
2022-12-03T05:22:01.249Z,73.40
2022-12-03T05:25:05.038Z,60.67
2022-12-03T05:28:08.574Z,69.03
2022-12-03T05:31:11.952Z,55.83
2022-12-03T05:34:15.238Z,48.33
2022-12-03T05:37:18.779Z,51.65
2022-12-03T05:40:22.247Z,48.40
2022-12-03T05:43:25.633Z,44.53
2022-12-03T05:46:28.976Z,45.00
2022-12-03T05:49:32.173Z,42.85
2022-12-03T05:52:35.410Z,44.70
2022-12-03T05:55:38.698Z,50.20
2022-12-03T05:58:41.866Z,43.70
2022-12-03T06:01:45.147Z,44.23
2022-12-03T06:04:48.391Z,46.13
2022-12-03T06:07:53.021Z,42.95
2022-12-03T06:10:56.226Z,43.05
2022-12-03T06:13:59.504Z,44.10
2022-12-03T06:17:03.082Z,40.97
2022-12-03T06:20:07.918Z,38.80
2022-12-03T06:23:11.113Z,41.63
2022-12-03T06:26:14.952Z,39.95
2022-12-03T06:29:18.205Z,36.95
2022-12-03T06:32:21.368Z,39.57
2022-12-03T06:35:24.685Z,40.40
2022-12-03T06:38:27.888Z,39.20
2022-12-03T06:41:31.250Z,48.05
2022-12-03T06:44:35.061Z,45.05
2022-12-03T06:47:39.514Z,40.85
2022-12-03T06:50:42.752Z,39.25
2022-12-03T06:53:46.004Z,39.33
2022-12-03T06:56:49.246Z,41.67
2022-12-03T06:59:52.803Z,37.35
2022-12-03T07:02:56.307Z,38.47
2022-12-03T07:05:59.625Z,35.70
2022-12-03T07:09:02.796Z,42.20
2022-12-03T07:12:06.341Z,43.67
2022-12-03T07:15:10.191Z,41.30
2022-12-03T07:18:13.381Z,42.20
2022-12-03T07:21:17.080Z,41.78
2022-12-03T07:24:20.398Z,41.60
2022-12-03T07:27:23.624Z,50.22
2022-12-03T07:30:27.816Z,46.63
2022-12-03T07:33:32.688Z,45.60
2022-12-03T07:36:35.858Z,45.95
2022-12-03T07:39:39.117Z,39.20
2022-12-03T07:42:42.334Z,43.85
2022-12-03T07:45:46.572Z,43.80
2022-12-03T07:48:50.310Z,48.00
2022-12-03T07:51:54.433Z,45.47
2022-12-03T07:54:57.759Z,45.27
2022-12-03T07:58:01.015Z,44.47
2022-12-03T08:01:04.311Z,46.05
2022-12-03T08:04:08.511Z,44.70
2022-12-03T08:07:13.585Z,47.22
2022-12-03T08:10:16.967Z,53.35
2022-12-03T08:13:20.377Z,46.80
2022-12-03T08:16:23.810Z,45.97
2022-12-03T08:19:27.846Z,47.50
2022-12-03T08:22:31.128Z,47.97
2022-12-03T08:25:34.636Z,54.73
2022-12-03T08:28:38.093Z,47.83
2022-12-03T08:31:42.026Z,52.15
2022-12-03T08:34:45.957Z,48.23
2022-12-03T08:38:10.969Z,51.28
2022-12-03T08:41:16.251Z,54.92
2022-12-03T08:44:28.112Z,49.55
2022-12-03T08:47:31.266Z,48.13
2022-12-03T08:50:39.344Z,44.42
2022-12-03T08:53:47.602Z,42.47
2022-12-03T08:56:50.790Z,46.00
2022-12-03T09:00:21.958Z,43.35
2022-12-03T09:03:25.567Z,35.45
2022-12-03T09:06:28.898Z,38.97
2022-12-03T09:09:32.362Z,38.92
2022-12-03T09:12:38.860Z,36.58
2022-12-03T09:15:42.053Z,34.90
2022-12-03T09:18:45.342Z,28.50
2022-12-03T09:21:48.729Z,31.20
2022-12-03T09:24:52.837Z,30.80
2022-12-03T09:27:56.485Z,34.67
2022-12-03T09:30:59.859Z,33.25
2022-12-03T09:34:04.613Z,36.50
2022-12-03T09:37:07.872Z,31.65
2022-12-03T09:40:12.020Z,31.00
2022-12-03T09:43:15.656Z,32.38
2022-12-03T09:46:20.868Z,30.40
2022-12-03T09:49:24.780Z,28.03
2022-12-03T09:52:29.793Z,30.77
2022-12-03T09:55:33.233Z,35.58
2022-12-03T09:58:36.705Z,29.85
2022-12-03T10:01:40.137Z,30.07
2022-12-03T10:04:43.436Z,33.08
2022-12-03T10:07:47.588Z,31.60
2022-12-03T10:10:54.356Z,29.60
2022-12-03T10:13:58.605Z,31.83
2022-12-03T10:17:02.028Z,33.05
2022-12-03T10:20:06.377Z,39.70
2022-12-03T10:23:09.772Z,36.73
2022-12-03T10:26:12.921Z,30.80
2022-12-03T10:29:32.931Z,33.50
2022-12-03T10:32:49.145Z,30.40
2022-12-03T10:35:52.359Z,33.50
2022-12-03T10:39:16.861Z,30.08
2022-12-03T10:42:20.138Z,30.85
2022-12-03T10:45:24.313Z,33.67
2022-12-03T10:48:30.489Z,31.08
2022-12-03T10:51:33.781Z,33.33
2022-12-03T10:54:36.982Z,35.20
2022-12-03T10:57:45.253Z,35.60
2022-12-03T11:00:51.294Z,34.17
2022-12-03T11:04:01.209Z,38.50
2022-12-03T11:07:16.896Z,35.53
2022-12-03T11:10:20.946Z,37.37
2022-12-03T11:13:33.049Z,40.00
2022-12-03T11:16:41.989Z,40.50
2022-12-03T11:19:47.350Z,43.55
2022-12-03T11:22:58.138Z,46.47
2022-12-03T11:26:01.416Z,43.92
2022-12-03T11:29:13.413Z,45.75
2022-12-03T11:32:42.617Z,46.22
2022-12-03T11:36:04.068Z,46.43
2022-12-03T11:39:12.174Z,41.22
2022-12-03T11:42:28.439Z,42.55
2022-12-03T11:45:34.010Z,46.50
2022-12-03T11:48:45.447Z,45.30
2022-12-03T11:51:49.033Z,45.58
2022-12-03T11:55:01.122Z,44.17
2022-12-03T11:58:17.432Z,45.03
2022-12-03T12:01:38.990Z,42.63
2022-12-03T12:04:46.644Z,43.77
2022-12-03T12:07:52.237Z,40.15
2022-12-03T12:10:56.058Z,41.03
2022-12-03T12:14:00.327Z,45.17
2022-12-03T12:17:05.083Z,37.17
2022-12-03T12:20:25.031Z,37.13
2022-12-03T12:23:29.794Z,37.03
2022-12-03T12:26:32.933Z,31.65
2022-12-03T12:29:38.097Z,37.28
2022-12-03T12:32:46.962Z,29.57
2022-12-03T12:35:50.934Z,33.00
2022-12-03T12:38:54.105Z,37.75
2022-12-03T12:41:57.689Z,23.88
2022-12-03T12:45:12.179Z,22.20
2022-12-03T12:48:28.821Z,24.10
2022-12-03T12:51:38.140Z,21.98
2022-12-03T12:54:41.891Z,18.85
2022-12-03T12:57:45.709Z,21.52
2022-12-03T13:00:55.768Z,19.58
2022-12-03T13:03:59.739Z,19.83
2022-12-03T13:07:02.981Z,21.20
2022-12-03T13:10:29.624Z,20.75
2022-12-03T13:13:43.720Z,17.20
2022-12-03T13:16:51.635Z,18.93
2022-12-03T13:20:06.740Z,23.50
2022-12-03T13:23:34.221Z,19.17
2022-12-03T13:26:39.813Z,21.88
2022-12-03T13:29:44.100Z,19.90
2022-12-03T13:32:47.318Z,20.70
2022-12-03T13:35:52.651Z,21.75
2022-12-03T13:38:55.946Z,19.33
2022-12-03T13:42:40.694Z,18.35
2022-12-03T13:45:47.955Z,16.60
2022-12-03T13:48:51.257Z,15.93
2022-12-03T13:51:54.566Z,17.83
2022-12-03T13:54:58.511Z,17.58
2022-12-03T13:58:01.673Z,17.93
2022-12-03T14:01:05.018Z,21.00
2022-12-03T14:04:08.206Z,19.83
2022-12-03T14:07:11.503Z,21.83
2022-12-03T14:10:16.368Z,19.58
2022-12-03T14:13:19.547Z,21.20
2022-12-03T14:16:22.896Z,20.50
2022-12-03T14:19:26.100Z,22.80
2022-12-03T14:22:30.066Z,20.15
2022-12-03T14:25:33.174Z,21.45
2022-12-03T14:28:36.424Z,21.17
2022-12-03T14:31:39.970Z,20.80
2022-12-03T14:34:43.255Z,19.92
2022-12-03T14:37:46.454Z,22.02
2022-12-03T14:40:49.685Z,20.90
2022-12-03T14:43:52.870Z,21.15
2022-12-03T14:46:57.459Z,22.77
2022-12-03T14:50:01.157Z,24.60
2022-12-03T14:53:04.494Z,23.85
2022-12-03T14:56:07.764Z,22.40
2022-12-03T14:59:10.944Z,26.67
2022-12-03T15:02:14.462Z,25.23
2022-12-03T15:05:20.019Z,23.67
2022-12-03T15:08:25.570Z,23.93
2022-12-03T15:11:29.154Z,23.17
2022-12-03T15:14:32.352Z,24.50
2022-12-03T15:17:35.600Z,27.50
2022-12-03T15:20:39.162Z,24.75
2022-12-03T15:23:42.552Z,27.55
2022-12-03T15:26:45.733Z,24.80
2022-12-03T15:29:48.912Z,24.95
2022-12-03T15:32:52.371Z,26.08
2022-12-03T15:35:55.616Z,25.58
2022-12-03T15:38:58.848Z,27.52
2022-12-03T15:42:02.687Z,24.25
2022-12-03T15:45:09.578Z,28.00
2022-12-03T15:48:16.814Z,26.53
2022-12-03T15:51:20.437Z,25.63
2022-12-03T15:54:23.630Z,25.50
2022-12-03T15:57:26.855Z,28.13
2022-12-03T16:00:30.903Z,24.50
2022-12-03T16:03:34.641Z,28.73
2022-12-03T16:06:38.127Z,30.48
2022-12-03T16:09:41.595Z,24.10
2022-12-03T16:12:44.815Z,25.17
2022-12-03T16:15:48.153Z,27.33
2022-12-03T16:18:51.658Z,25.33
2022-12-03T16:21:55.061Z,27.23
2022-12-03T16:24:58.289Z,24.80
2022-12-03T16:28:01.662Z,25.65
2022-12-03T16:31:05.115Z,28.23
2022-12-03T16:34:08.884Z,31.60
2022-12-03T16:37:12.337Z,30.57
2022-12-03T16:40:23.656Z,33.40
2022-12-03T16:43:26.833Z,35.15
2022-12-03T16:46:30.962Z,36.50
2022-12-03T16:49:34.589Z,39.00
2022-12-03T16:52:37.900Z,38.03
2022-12-03T16:55:41.282Z,35.28
2022-12-03T16:58:44.564Z,34.55
2022-12-03T17:01:48.153Z,35.97
2022-12-03T17:04:51.591Z,33.22
2022-12-03T17:07:54.914Z,32.08
2022-12-03T17:10:58.206Z,34.17
2022-12-03T17:14:01.547Z,33.07
2022-12-03T17:17:04.809Z,37.38
2022-12-03T17:20:08.775Z,34.17
2022-12-03T17:23:12.017Z,32.72
2022-12-03T17:26:15.609Z,35.73
2022-12-03T17:29:18.827Z,38.28
2022-12-03T17:32:22.096Z,39.22
2022-12-03T17:35:26.806Z,39.92
2022-12-03T17:38:34.151Z,43.33
2022-12-03T17:41:42.061Z,37.45
2022-12-03T17:44:45.231Z,39.70
2022-12-03T17:47:48.523Z,40.03
2022-12-03T17:50:51.734Z,37.50
2022-12-03T17:53:55.156Z,32.25
2022-12-03T17:56:58.457Z,32.00
2022-12-03T18:00:01.843Z,32.97
2022-12-03T18:03:15.377Z,33.20
2022-12-03T18:06:18.553Z,35.25
2022-12-03T18:09:22.485Z,30.60
2022-12-03T18:12:25.999Z,32.63
2022-12-03T18:15:29.712Z,29.50
2022-12-03T18:18:33.048Z,33.90
2022-12-03T18:21:36.489Z,31.88
2022-12-03T18:24:40.167Z,33.53
2022-12-03T18:27:43.411Z,29.50
2022-12-03T18:30:52.216Z,31.83
2022-12-03T18:33:56.101Z,29.38
2022-12-03T18:36:59.574Z,30.65
2022-12-03T18:40:13.443Z,30.52
2022-12-03T18:43:17.632Z,30.08
2022-12-03T18:49:45.753Z,33.75
2022-12-03T18:52:49.108Z,35.70
2022-12-03T18:55:52.334Z,32.90
2022-12-03T18:58:55.830Z,29.98
2022-12-03T19:02:00.266Z,30.23
2022-12-03T19:05:04.030Z,31.77
2022-12-03T19:08:14.258Z,31.60
2022-12-03T19:11:17.794Z,32.92
2022-12-03T19:14:21.286Z,35.47
2022-12-03T19:17:27.008Z,32.73
2022-12-03T19:20:30.988Z,37.30
2022-12-03T19:23:35.248Z,40.75
2022-12-03T19:26:38.790Z,38.60
2022-12-03T19:29:42.110Z,40.90
2022-12-03T19:32:45.968Z,42.70
2022-12-03T19:35:49.440Z,38.92
2022-12-03T19:38:57.343Z,39.45
2022-12-03T19:42:01.265Z,35.30
2022-12-03T19:45:05.635Z,38.28
2022-12-03T19:48:09.731Z,40.15
2022-12-03T19:51:33.674Z,37.10
2022-12-03T19:54:38.077Z,35.85
2022-12-03T19:57:41.572Z,37.08
2022-12-03T20:00:45.148Z,35.50
2022-12-03T20:03:51.188Z,34.80
2022-12-03T20:06:54.605Z,33.93
2022-12-03T20:09:58.067Z,30.15
2022-12-03T20:13:01.795Z,30.45
2022-12-03T20:16:07.080Z,31.02
2022-12-03T20:19:13.925Z,28.97
2022-12-03T20:22:17.389Z,31.05
2022-12-03T20:25:20.584Z,25.88
2022-12-03T20:28:24.522Z,23.83
2022-12-03T20:31:30.901Z,24.47
2022-12-03T20:34:36.029Z,24.48
2022-12-03T20:37:39.530Z,22.40
2022-12-03T20:40:43.053Z,21.58
2022-12-03T20:43:46.882Z,20.10
2022-12-03T20:46:50.303Z,24.58
2022-12-03T20:49:54.270Z,21.02
2022-12-03T20:53:22.630Z,22.53
2022-12-03T20:56:24.018Z,19.70
2022-12-03T20:59:27.369Z,19.33
2022-12-03T21:02:30.808Z,19.42
2022-12-03T21:05:34.387Z,21.43
2022-12-03T21:08:42.678Z,18.83
2022-12-03T21:11:46.582Z,17.92
2022-12-03T21:14:49.863Z,18.73
2022-12-03T21:17:53.338Z,19.50
2022-12-03T21:20:58.898Z,18.58
2022-12-03T21:24:02.403Z,19.95
2022-12-03T21:27:05.608Z,19.38
2022-12-03T21:30:09.129Z,21.00
2022-12-03T21:33:12.616Z,20.65
2022-12-03T21:36:17.036Z,18.67
2022-12-03T21:39:20.371Z,17.70
2022-12-03T21:42:36.242Z,19.80
2022-12-03T21:45:41.684Z,20.70
2022-12-03T21:48:45.570Z,18.02
2022-12-03T21:51:48.966Z,17.38
2022-12-03T21:54:55.087Z,17.23
2022-12-03T21:57:58.359Z,17.13
2022-12-03T22:01:09.687Z,16.85
2022-12-03T22:04:12.973Z,16.00
2022-12-03T22:07:16.144Z,14.77
2022-12-03T22:10:19.566Z,15.00
2022-12-03T22:13:22.689Z,14.18
2022-12-03T22:16:26.103Z,15.80
2022-12-03T22:19:34.320Z,15.40
2022-12-03T22:22:37.525Z,14.30
2022-12-03T22:25:40.747Z,13.70
2022-12-03T22:28:45.104Z,14.63
2022-12-03T22:31:48.338Z,14.48
2022-12-03T22:34:51.822Z,15.93
2022-12-03T22:37:55.066Z,13.88
2022-12-03T22:40:58.666Z,13.95
2022-12-03T22:44:01.902Z,14.25
2022-12-03T22:47:05.254Z,13.25
2022-12-03T22:50:09.061Z,15.03
2022-12-03T22:53:13.144Z,14.93
2022-12-03T22:56:17.311Z,14.60
2022-12-03T22:59:20.538Z,14.63
2022-12-03T23:02:23.811Z,13.80
2022-12-03T23:05:30.559Z,12.25
2022-12-03T23:08:34.134Z,12.35
2022-12-03T23:11:38.048Z,13.20
2022-12-03T23:14:41.225Z,14.18
2022-12-03T23:17:44.463Z,14.50
2022-12-03T23:20:52.985Z,11.77
2022-12-03T23:23:56.320Z,12.70
2022-12-03T23:26:59.562Z,12.70
2022-12-03T23:30:03.725Z,12.30
2022-12-03T23:33:07.434Z,13.60
2022-12-03T23:36:11.625Z,14.77
2022-12-03T23:39:15.021Z,11.30
2022-12-03T23:42:18.261Z,11.50
2022-12-03T23:45:21.473Z,11.32
2022-12-03T23:48:24.750Z,10.80
2022-12-03T23:51:28.702Z,12.73
2022-12-03T23:54:31.944Z,11.85
2022-12-03T23:57:35.580Z,10.83
